createdAt,value
2022-10-22T00:02:22.439Z,0.80
2022-10-22T00:04:50.512Z,0.90
2022-10-22T00:07:20.992Z,0.90
2022-10-22T00:09:48.020Z,1.00
2022-10-22T00:12:16.304Z,1.10
2022-10-22T00:14:43.267Z,1.02
2022-10-22T00:17:11.509Z,1.48
2022-10-22T00:19:39.506Z,0.98
2022-10-22T00:22:06.658Z,1.00
2022-10-22T00:24:34.394Z,1.10
2022-10-22T00:27:01.395Z,0.95
2022-10-22T00:29:28.149Z,0.87
2022-10-22T00:34:23.482Z,0.70
2022-10-22T00:36:51.508Z,0.70
2022-10-22T00:39:20.511Z,0.80
2022-10-22T00:41:49.251Z,1.10
2022-10-22T00:44:53.583Z,0.75
2022-10-22T00:47:21.183Z,1.00
2022-10-22T00:49:48.238Z,1.08
2022-10-22T00:52:15.028Z,1.15
2022-10-22T00:54:42.694Z,0.75
2022-10-22T00:57:09.984Z,0.95
2022-10-22T00:59:38.276Z,0.63
2022-10-22T01:02:05.155Z,0.73
2022-10-22T01:04:31.861Z,0.90
2022-10-22T01:06:58.511Z,0.90
2022-10-22T01:09:57.091Z,0.90
2022-10-22T01:12:30.688Z,1.58
2022-10-22T01:15:03.677Z,0.90
2022-10-22T01:17:41.110Z,0.95
2022-10-22T01:20:32.544Z,1.75
2022-10-22T01:23:23.020Z,0.77
2022-10-22T01:26:06.605Z,0.60
2022-10-22T01:28:57.432Z,1.07
2022-10-22T01:31:29.538Z,0.85
2022-10-22T01:33:58.666Z,0.88
2022-10-22T01:36:25.858Z,0.60
2022-10-22T01:38:53.531Z,1.05
2022-10-22T01:41:20.207Z,1.00
2022-10-22T01:43:46.887Z,0.90
2022-10-22T01:46:14.374Z,1.02
2022-10-22T01:49:01.966Z,0.75
2022-10-22T01:51:40.788Z,0.90
2022-10-22T01:54:25.476Z,0.70
2022-10-22T01:57:13.142Z,0.80
2022-10-22T02:00:15.235Z,0.90
2022-10-22T02:02:58.408Z,1.00
2022-10-22T02:05:33.178Z,0.75
2022-10-22T02:08:02.109Z,0.70
2022-10-22T02:10:30.726Z,0.90
2022-10-22T02:13:00.396Z,0.60
2022-10-22T02:15:29.673Z,0.80
2022-10-22T02:17:59.962Z,1.25
2022-10-22T02:20:30.702Z,0.80
2022-10-22T02:22:58.956Z,1.05
2022-10-22T02:25:31.988Z,0.90
2022-10-22T02:28:16.243Z,0.80
2022-10-22T02:30:47.473Z,0.75
2022-10-22T02:33:22.207Z,0.87
2022-10-22T02:35:50.266Z,0.80
2022-10-22T02:38:18.162Z,1.52
2022-10-22T02:40:45.035Z,0.70
2022-10-22T02:43:11.692Z,1.40
2022-10-22T02:45:38.398Z,0.80
2022-10-22T02:48:05.502Z,1.00
2022-10-22T02:50:32.169Z,1.10
2022-10-22T02:52:58.727Z,1.65
2022-10-22T02:55:25.294Z,1.33
2022-10-22T02:57:51.883Z,0.95
2022-10-22T03:00:18.738Z,1.23
2022-10-22T03:02:45.322Z,1.05
2022-10-22T03:05:11.914Z,1.38
2022-10-22T03:07:39.161Z,1.30
2022-10-22T03:10:06.452Z,1.55
2022-10-22T03:12:33.146Z,1.42
2022-10-22T03:14:59.912Z,0.98
2022-10-22T03:17:26.586Z,1.00
2022-10-22T03:19:53.181Z,1.48
2022-10-22T03:22:32.662Z,1.08
2022-10-22T03:25:03.238Z,1.35
2022-10-22T03:27:30.509Z,1.40
2022-10-22T03:29:58.084Z,1.27
2022-10-22T03:32:24.793Z,1.88
2022-10-22T03:34:51.437Z,1.40
2022-10-22T03:37:18.340Z,1.90
2022-10-22T03:39:45.537Z,1.65
2022-10-22T03:42:13.454Z,1.40
2022-10-22T03:44:40.858Z,1.80
2022-10-22T03:47:07.526Z,1.50
2022-10-22T03:49:34.213Z,2.80
2022-10-22T03:52:12.837Z,1.48
2022-10-22T03:54:40.207Z,1.58
2022-10-22T03:57:07.239Z,1.30
2022-10-22T03:59:39.038Z,0.95
2022-10-22T04:02:06.178Z,1.23
2022-10-22T04:04:32.817Z,1.33
2022-10-22T04:06:59.858Z,1.27
2022-10-22T04:09:26.432Z,1.77
2022-10-22T04:11:53.068Z,1.55
2022-10-22T04:14:19.651Z,1.98
2022-10-22T04:16:46.509Z,1.50
2022-10-22T04:19:13.514Z,2.10
2022-10-22T04:21:40.161Z,1.42
2022-10-22T04:24:06.914Z,1.25
2022-10-22T04:26:33.499Z,1.23
2022-10-22T04:29:00.220Z,1.60
2022-10-22T04:31:27.069Z,1.52
2022-10-22T04:33:55.374Z,1.20
2022-10-22T04:36:22.765Z,1.55
2022-10-22T04:38:56.834Z,1.67
2022-10-22T04:41:26.262Z,1.20
2022-10-22T04:43:54.816Z,1.48
2022-10-22T04:46:21.946Z,1.30
2022-10-22T04:48:48.571Z,1.35
2022-10-22T04:51:17.935Z,1.63
2022-10-22T04:53:45.457Z,1.80
2022-10-22T04:56:26.796Z,1.75
2022-10-22T04:58:59.247Z,1.60
2022-10-22T05:01:28.643Z,2.03
2022-10-22T05:03:57.393Z,1.67
2022-10-22T05:06:24.873Z,1.13
2022-10-22T05:08:56.670Z,1.00
2022-10-22T05:11:29.881Z,0.68
2022-10-22T05:13:58.079Z,1.20
2022-10-22T05:16:25.287Z,1.13
2022-10-22T05:18:51.884Z,1.00
2022-10-22T05:21:20.387Z,0.82
2022-10-22T05:23:49.046Z,0.90
2022-10-22T05:26:18.358Z,0.60
2022-10-22T05:28:45.407Z,0.50
2022-10-22T05:31:13.917Z,1.13
2022-10-22T05:33:41.197Z,0.90
2022-10-22T05:36:11.030Z,0.77
2022-10-22T05:38:37.748Z,0.82
2022-10-22T05:41:09.880Z,0.73
2022-10-22T05:43:37.642Z,0.70
2022-10-22T05:46:07.229Z,0.52
2022-10-22T05:48:34.587Z,0.80
2022-10-22T05:51:05.875Z,0.68
2022-10-22T05:53:33.473Z,1.08
2022-10-22T05:56:05.251Z,0.32
2022-10-22T05:58:32.184Z,0.43
2022-10-22T06:01:06.280Z,0.40
2022-10-22T06:03:33.232Z,0.47
2022-10-22T06:06:02.032Z,0.30
2022-10-22T06:08:29.855Z,0.60
2022-10-22T06:10:57.013Z,1.13
2022-10-22T06:13:23.630Z,0.40
2022-10-22T06:15:53.502Z,0.43
2022-10-22T06:18:20.135Z,0.40
2022-10-22T06:20:47.763Z,0.32
2022-10-22T06:23:15.450Z,0.30
2022-10-22T06:25:43.607Z,0.60
2022-10-22T06:28:10.772Z,0.30
2022-10-22T06:30:42.893Z,0.40
2022-10-22T06:33:12.500Z,0.40
2022-10-22T06:35:39.211Z,0.75
2022-10-22T06:38:06.598Z,0.20
2022-10-22T06:40:33.689Z,0.20
2022-10-22T06:43:00.975Z,0.15
2022-10-22T06:45:27.666Z,0.30
2022-10-22T06:47:55.674Z,0.40
2022-10-22T06:50:22.385Z,0.22
2022-10-22T06:52:49.053Z,0.30
2022-10-22T06:55:15.809Z,0.20
2022-10-22T06:57:42.917Z,0.30
2022-10-22T07:00:10.366Z,0.25
2022-10-22T07:02:36.985Z,0.55
2022-10-22T07:05:03.753Z,0.32
2022-10-22T07:07:30.425Z,0.20
2022-10-22T07:09:57.046Z,0.30
2022-10-22T07:12:23.725Z,0.10
2022-10-22T07:14:50.554Z,0.40
2022-10-22T07:17:17.257Z,0.27
2022-10-22T07:19:44.610Z,0.23
2022-10-22T07:22:13.745Z,0.07
2022-10-22T07:24:40.348Z,0.20
2022-10-22T07:27:09.458Z,0.22
2022-10-22T07:29:37.520Z,0.10
2022-10-22T07:32:04.206Z,0.88
2022-10-22T07:34:30.798Z,1.50
2022-10-22T07:36:57.460Z,1.05
2022-10-22T07:39:25.948Z,0.37
2022-10-22T07:41:52.998Z,0.40
2022-10-22T07:44:19.584Z,0.10
2022-10-22T07:46:48.846Z,0.27
2022-10-22T07:49:15.726Z,0.10
2022-10-22T07:51:42.238Z,0.10
2022-10-22T07:54:08.933Z,0.20
2022-10-22T07:56:35.524Z,0.20
2022-10-22T08:01:28.636Z,0.45
2022-10-22T08:03:55.382Z,0.40
2022-10-22T08:06:21.992Z,0.32
2022-10-22T08:08:48.736Z,0.75
2022-10-22T08:11:15.503Z,0.28
2022-10-22T08:13:45.381Z,1.08
2022-10-22T08:16:12.443Z,0.40
2022-10-22T08:18:39.638Z,0.60
2022-10-22T08:21:06.358Z,0.40
2022-10-22T08:23:33.116Z,0.47
2022-10-22T08:25:59.901Z,0.32
2022-10-22T08:28:28.837Z,0.40
2022-10-22T08:30:56.108Z,0.75
2022-10-22T08:33:22.887Z,0.30
2022-10-22T08:35:51.057Z,0.35
2022-10-22T08:38:18.696Z,0.20
2022-10-22T08:40:51.605Z,0.20
2022-10-22T08:43:37.013Z,0.30
2022-10-22T08:46:16.975Z,0.30
2022-10-22T08:48:46.672Z,0.20
2022-10-22T08:51:22.783Z,0.40
2022-10-22T08:54:07.807Z,0.15
2022-10-22T08:56:37.328Z,0.20
2022-10-22T08:59:17.458Z,0.10
2022-10-22T09:01:47.961Z,0.10
2022-10-22T09:04:25.615Z,0.32
2022-10-22T09:06:55.455Z,0.40
2022-10-22T09:09:25.821Z,0.13
2022-10-22T09:11:54.611Z,0.43
2022-10-22T09:14:24.321Z,0.10
2022-10-22T09:17:14.285Z,0.20
2022-10-22T09:19:58.846Z,0.28
2022-10-22T09:22:39.467Z,0.47
2022-10-22T09:25:20.788Z,0.20
2022-10-22T09:27:48.180Z,0.20
2022-10-22T09:30:21.692Z,0.25
2022-10-22T09:32:54.894Z,0.30
2022-10-22T09:35:24.542Z,0.20
2022-10-22T09:37:56.113Z,0.30
2022-10-22T09:40:23.748Z,0.13
2022-10-22T09:42:50.524Z,0.65
2022-10-22T09:45:24.736Z,0.20
2022-10-22T09:48:03.099Z,0.25
2022-10-22T09:50:42.981Z,0.25
2022-10-22T09:53:26.225Z,0.85
2022-10-22T09:56:01.243Z,1.20
2022-10-22T09:58:28.679Z,0.20
2022-10-22T10:01:00.979Z,0.10
2022-10-22T10:03:35.925Z,0.30
2022-10-22T10:06:05.974Z,0.20
2022-10-22T10:08:33.509Z,0.20
2022-10-22T10:11:06.223Z,0.10
2022-10-22T10:13:47.878Z,0.30
2022-10-22T10:16:42.749Z,0.20
2022-10-22T10:19:22.809Z,0.17
2022-10-22T10:22:05.489Z,0.20
2022-10-22T10:24:38.136Z,0.15
2022-10-22T10:27:31.049Z,0.30
2022-10-22T10:30:24.038Z,0.75
2022-10-22T10:33:32.262Z,0.30
2022-10-22T10:36:06.902Z,0.20
2022-10-22T10:38:33.490Z,0.43
2022-10-22T10:41:24.480Z,0.38
2022-10-22T10:44:03.027Z,0.47
2022-10-22T10:46:38.644Z,0.95
2022-10-22T10:49:19.142Z,0.50
2022-10-22T10:52:10.088Z,0.38
2022-10-22T10:54:46.796Z,0.38
2022-10-22T10:58:03.266Z,0.35
2022-10-22T11:00:34.945Z,0.30
2022-10-22T11:03:25.993Z,0.50
2022-10-22T11:05:59.466Z,0.40
2022-10-22T11:08:31.988Z,0.20
2022-10-22T11:11:07.850Z,0.38
2022-10-22T11:14:00.298Z,0.75
2022-10-22T11:16:40.402Z,0.40
2022-10-22T11:19:46.255Z,0.55
2022-10-22T11:22:26.923Z,0.28
2022-10-22T11:25:17.419Z,0.47
2022-10-22T11:27:53.563Z,0.75
2022-10-22T11:30:23.257Z,0.60
2022-10-22T11:32:56.159Z,0.70
2022-10-22T11:35:26.315Z,0.60
2022-10-22T11:37:56.717Z,0.45
2022-10-22T11:40:29.123Z,0.65
2022-10-22T11:43:04.522Z,0.40
2022-10-22T11:45:42.182Z,0.73
2022-10-22T11:48:11.850Z,0.80
2022-10-22T11:50:41.464Z,0.95
2022-10-22T11:53:14.100Z,0.80
2022-10-22T11:55:48.099Z,0.88
2022-10-22T11:58:39.522Z,0.70
2022-10-22T12:01:09.233Z,1.58
2022-10-22T12:03:38.074Z,0.80
2022-10-22T12:06:15.142Z,0.90
2022-10-22T12:09:04.928Z,0.70
2022-10-22T12:11:47.885Z,0.70
2022-10-22T12:14:20.060Z,0.80
2022-10-22T12:16:57.275Z,0.70
2022-10-22T12:19:27.951Z,0.57
2022-10-22T12:21:58.871Z,0.95
2022-10-22T12:24:29.946Z,0.95
2022-10-22T12:26:56.557Z,0.47
2022-10-22T12:29:24.174Z,0.80
2022-10-22T12:31:50.857Z,0.82
2022-10-22T12:34:21.560Z,0.80
2022-10-22T12:36:50.042Z,0.60
2022-10-22T12:39:20.039Z,0.90
2022-10-22T12:41:47.404Z,0.40
2022-10-22T12:44:18.640Z,1.25
2022-10-22T12:46:50.540Z,0.88
2022-10-22T12:49:31.099Z,0.60
2022-10-22T12:52:03.153Z,0.60
2022-10-22T12:54:32.187Z,0.50
2022-10-22T12:56:59.349Z,0.80
2022-10-22T12:59:29.074Z,0.70
2022-10-22T13:01:56.906Z,0.60
2022-10-22T13:04:26.716Z,0.50
2022-10-22T13:07:16.961Z,0.60
2022-10-22T13:10:21.668Z,0.68
2022-10-22T13:12:54.363Z,0.70
2022-10-22T13:15:22.850Z,0.57
2022-10-22T13:17:52.655Z,0.57
2022-10-22T13:20:23.326Z,0.57
2022-10-22T13:23:01.332Z,0.63
2022-10-22T13:25:32.361Z,0.73
2022-10-22T13:28:04.081Z,0.60
2022-10-22T13:30:34.266Z,0.70
2022-10-22T13:33:04.065Z,0.40
2022-10-22T13:35:35.190Z,0.60
2022-10-22T13:38:02.162Z,0.80
2022-10-22T13:40:28.848Z,0.77
2022-10-22T13:42:55.584Z,1.73
2022-10-22T13:45:22.188Z,0.57
2022-10-22T13:47:52.347Z,0.77
2022-10-22T13:50:21.240Z,1.17
2022-10-22T13:52:56.618Z,1.00
2022-10-22T13:55:25.818Z,1.67
2022-10-22T13:58:10.869Z,1.20
2022-10-22T14:00:43.311Z,0.98
2022-10-22T14:03:16.425Z,2.40
2022-10-22T14:05:44.039Z,0.90
2022-10-22T14:08:16.949Z,0.90
2022-10-22T14:10:43.648Z,0.90
2022-10-22T14:13:15.576Z,0.95
2022-10-22T14:15:45.260Z,0.90
2022-10-22T14:18:16.963Z,0.63
2022-10-22T14:20:43.770Z,0.50
2022-10-22T14:25:43.276Z,1.25
2022-10-22T14:28:12.071Z,0.80
2022-10-22T14:30:39.168Z,0.50
2022-10-22T14:33:28.858Z,0.50
2022-10-22T14:35:56.966Z,0.57
2022-10-22T14:38:23.602Z,0.57
2022-10-22T14:40:50.526Z,0.73
2022-10-22T14:43:22.417Z,0.70
2022-10-22T14:45:50.030Z,0.88
2022-10-22T14:48:17.171Z,0.63
2022-10-22T14:50:44.836Z,0.63
2022-10-22T14:53:13.720Z,0.88
2022-10-22T14:55:41.465Z,0.52
2022-10-22T14:58:08.210Z,0.60
2022-10-22T15:00:36.851Z,0.65
2022-10-22T15:03:04.486Z,1.13
2022-10-22T15:05:31.265Z,0.47
2022-10-22T15:07:59.353Z,0.68
2022-10-22T15:10:26.431Z,0.80
2022-10-22T15:12:53.358Z,0.70
2022-10-22T15:15:22.649Z,0.68
2022-10-22T15:17:49.932Z,0.52
2022-10-22T15:20:16.584Z,0.40
2022-10-22T15:22:43.694Z,0.40
2022-10-22T15:25:12.820Z,0.80
2022-10-22T15:27:39.533Z,0.55
2022-10-22T15:30:07.738Z,0.52
2022-10-22T15:32:34.367Z,0.30
2022-10-22T15:35:06.049Z,0.50
2022-10-22T15:37:32.662Z,0.60
2022-10-22T15:40:00.621Z,0.80
2022-10-22T15:42:27.199Z,0.50
2022-10-22T15:44:59.126Z,0.80
2022-10-22T15:47:28.723Z,1.58
2022-10-22T15:49:55.832Z,0.65
2022-10-22T15:52:22.493Z,0.95
2022-10-22T15:54:52.091Z,0.68
2022-10-22T15:57:18.629Z,1.10
2022-10-22T15:59:45.109Z,0.52
2022-10-22T16:02:11.998Z,1.08
2022-10-22T16:04:39.331Z,0.70
2022-10-22T16:07:06.794Z,0.57
2022-10-22T16:09:33.471Z,0.50
2022-10-22T16:12:00.319Z,0.43
2022-10-22T16:14:28.821Z,0.60
2022-10-22T16:16:56.431Z,0.57
2022-10-22T16:19:24.149Z,1.38
2022-10-22T16:21:52.856Z,0.50
2022-10-22T16:24:20.036Z,0.60
2022-10-22T16:26:47.427Z,0.30
2022-10-22T16:29:14.706Z,0.70
2022-10-22T16:31:43.707Z,0.50
2022-10-22T16:34:10.443Z,0.93
2022-10-22T16:36:37.240Z,0.50
2022-10-22T16:39:05.035Z,0.28
2022-10-22T16:41:35.507Z,0.52
2022-10-22T16:44:06.066Z,0.45
2022-10-22T16:46:33.538Z,0.85
2022-10-22T16:49:00.686Z,0.55
2022-10-22T16:51:28.490Z,0.77
2022-10-22T16:53:57.109Z,0.60
2022-10-22T16:56:24.823Z,0.40
2022-10-22T16:58:53.991Z,0.40
2022-10-22T17:01:24.387Z,0.50
2022-10-22T17:03:51.066Z,0.50
2022-10-22T17:06:17.704Z,0.50
2022-10-22T17:08:44.394Z,1.00
2022-10-22T17:11:19.576Z,0.50
2022-10-22T17:13:49.085Z,0.45
2022-10-22T17:16:17.628Z,0.93
2022-10-22T17:21:14.300Z,0.80
2022-10-22T17:23:42.791Z,0.82
2022-10-22T17:26:17.623Z,0.40
2022-10-22T17:28:44.718Z,0.80
2022-10-22T17:31:21.514Z,0.60
2022-10-22T17:33:49.989Z,1.48
2022-10-22T17:36:18.123Z,0.30
2022-10-22T17:38:48.788Z,0.40
2022-10-22T17:41:18.621Z,0.40
2022-10-22T17:46:32.388Z,0.80
2022-10-22T17:49:01.677Z,0.40
2022-10-22T17:51:30.074Z,0.75
2022-10-22T17:53:56.856Z,0.63
2022-10-22T17:56:26.118Z,0.60
2022-10-22T17:58:53.965Z,0.70
2022-10-22T18:01:29.886Z,0.45
2022-10-22T18:04:00.607Z,0.68
2022-10-22T18:06:27.203Z,1.35
2022-10-22T18:11:22.632Z,0.43
2022-10-22T18:13:51.048Z,0.52
2022-10-22T18:16:18.620Z,0.20
2022-10-22T18:18:50.231Z,0.60
2022-10-22T18:21:18.092Z,0.60
2022-10-22T18:23:45.793Z,0.55
2022-10-22T18:26:12.952Z,0.70
2022-10-22T18:28:39.757Z,0.63
2022-10-22T18:31:08.937Z,1.10
2022-10-22T18:33:40.174Z,0.55
2022-10-22T18:36:10.456Z,0.73
2022-10-22T18:38:38.382Z,1.10
2022-10-22T18:41:09.554Z,0.60
2022-10-22T18:43:37.040Z,0.70
2022-10-22T18:46:07.146Z,0.40
2022-10-22T18:48:35.174Z,0.57
2022-10-22T18:51:07.245Z,0.63
2022-10-22T18:53:35.203Z,0.55
2022-10-22T18:56:04.192Z,1.10
2022-10-22T18:58:30.848Z,0.85
2022-10-22T19:00:57.555Z,1.70
2022-10-22T19:03:24.168Z,0.98
2022-10-22T19:05:54.888Z,0.65
2022-10-22T19:08:23.833Z,0.70
2022-10-22T19:10:50.407Z,0.43
2022-10-22T19:13:18.594Z,1.08
2022-10-22T19:15:45.392Z,0.40
2022-10-22T19:18:13.486Z,0.50
2022-10-22T19:20:40.151Z,0.50
2022-10-22T19:23:07.880Z,1.65
2022-10-22T19:25:35.247Z,0.50
2022-10-22T19:28:01.902Z,0.50
2022-10-22T19:30:28.515Z,0.43
2022-10-22T19:32:55.168Z,0.40
2022-10-22T19:35:22.073Z,0.40
2022-10-22T19:37:48.863Z,0.68
2022-10-22T19:40:15.735Z,0.60
2022-10-22T19:42:44.372Z,0.90
2022-10-22T19:45:11.446Z,0.50
2022-10-22T19:47:38.156Z,1.15
2022-10-22T19:50:05.807Z,0.90
2022-10-22T19:52:33.645Z,0.90
2022-10-22T19:55:00.227Z,1.10
2022-10-22T19:57:26.735Z,0.40
2022-10-22T19:59:53.323Z,0.80
2022-10-22T20:02:19.907Z,0.70
2022-10-22T20:04:50.004Z,0.47
2022-10-22T20:07:16.872Z,1.10
2022-10-22T20:09:43.609Z,0.47
2022-10-22T20:12:10.167Z,0.60
2022-10-22T20:14:37.606Z,0.87
2022-10-22T20:17:04.376Z,0.50
2022-10-22T20:19:31.182Z,0.60
2022-10-22T20:24:24.357Z,0.60
2022-10-22T20:26:50.934Z,0.60
2022-10-22T20:29:19.349Z,0.83
2022-10-22T20:31:46.448Z,0.50
2022-10-22T20:34:13.645Z,0.67
2022-10-22T20:36:41.022Z,0.77
2022-10-22T20:39:11.863Z,0.87
2022-10-22T20:41:40.632Z,1.00
2022-10-22T20:44:12.757Z,0.77
2022-10-22T20:46:39.521Z,0.80
2022-10-22T20:49:09.422Z,0.60
2022-10-22T20:51:36.785Z,0.70
2022-10-22T20:54:04.605Z,0.70
2022-10-22T20:56:32.314Z,0.83
2022-10-22T20:59:05.856Z,0.83
2022-10-22T21:01:36.316Z,0.83
2022-10-22T21:04:03.203Z,0.70
2022-10-22T21:06:30.154Z,0.83
2022-10-22T21:08:56.774Z,0.70
2022-10-22T21:11:23.608Z,0.80
2022-10-22T21:13:50.640Z,0.50
2022-10-22T21:16:18.568Z,0.77
2022-10-22T21:18:46.515Z,1.00
2022-10-22T21:21:13.216Z,0.60
2022-10-22T21:23:40.228Z,1.50
2022-10-22T21:26:06.996Z,0.90
2022-10-22T21:28:35.883Z,1.07
2022-10-22T21:31:04.898Z,0.73
2022-10-22T21:33:35.091Z,0.80
2022-10-22T21:36:01.764Z,0.70
2022-10-22T21:38:28.305Z,0.70
2022-10-22T21:40:54.895Z,0.90
2022-10-22T21:43:21.798Z,0.50
2022-10-22T21:45:48.394Z,0.77
2022-10-22T21:48:15.871Z,0.40
2022-10-22T21:50:44.034Z,0.60
2022-10-22T21:53:12.195Z,1.27
2022-10-22T21:55:40.519Z,0.70
2022-10-22T21:58:08.293Z,0.60
2022-10-22T22:00:35.876Z,0.80
2022-10-22T22:03:02.981Z,0.70
2022-10-22T22:05:29.570Z,0.60
2022-10-22T22:07:56.267Z,0.80
2022-10-22T22:10:23.222Z,1.00
2022-10-22T22:12:51.776Z,0.70
2022-10-22T22:15:19.917Z,0.70
2022-10-22T22:17:47.081Z,0.60
2022-10-22T22:20:14.003Z,0.70
2022-10-22T22:22:40.870Z,0.60
2022-10-22T22:25:08.022Z,1.00
2022-10-22T22:27:34.788Z,0.93
2022-10-22T22:30:01.482Z,0.63
2022-10-22T22:32:27.994Z,0.97
2022-10-22T22:34:54.757Z,0.37
2022-10-22T22:37:21.410Z,0.40
2022-10-22T22:39:47.957Z,0.63
2022-10-22T22:42:14.641Z,0.90
2022-10-22T22:44:41.200Z,0.57
2022-10-22T22:47:07.731Z,0.90
2022-10-22T22:49:35.831Z,0.40
2022-10-22T22:52:03.663Z,0.43
2022-10-22T22:54:30.812Z,0.47
2022-10-22T22:56:57.477Z,0.33
2022-10-22T22:59:24.131Z,0.63
2022-10-22T23:01:50.940Z,0.27
2022-10-22T23:04:22.898Z,0.50
2022-10-22T23:06:50.240Z,0.80
2022-10-22T23:11:46.087Z,0.37
2022-10-22T23:14:15.463Z,1.00
2022-10-22T23:16:46.355Z,1.13
2022-10-22T23:19:14.941Z,0.40
2022-10-22T23:21:45.878Z,0.40
2022-10-22T23:24:15.206Z,0.57
2022-10-22T23:26:45.407Z,0.20
2022-10-22T23:29:24.306Z,0.30
2022-10-22T23:31:51.560Z,0.53
2022-10-22T23:34:23.763Z,0.60
2022-10-22T23:36:51.189Z,0.47
2022-10-22T23:39:20.569Z,0.50
2022-10-22T23:41:47.363Z,0.57
2022-10-22T23:44:14.490Z,0.50
2022-10-22T23:46:42.983Z,0.60
2022-10-22T23:49:10.704Z,0.50
2022-10-22T23:51:38.707Z,0.40
2022-10-22T23:54:08.258Z,0.50
2022-10-22T23:56:35.953Z,0.63
2022-10-22T23:59:04.043Z,0.60
